createdAt,value
2022-10-15T00:01:28.192Z,100.00
2022-10-15T00:03:55.948Z,100.00
2022-10-15T00:06:23.766Z,100.00
2022-10-15T00:08:51.839Z,100.00
2022-10-15T00:11:22.321Z,100.00
2022-10-15T00:13:50.783Z,100.00
2022-10-15T00:16:21.273Z,100.00
2022-10-15T00:18:52.045Z,100.00
2022-10-15T00:21:21.633Z,100.00
2022-10-15T00:23:50.090Z,100.00
2022-10-15T00:26:23.981Z,100.00
2022-10-15T00:28:54.067Z,100.00
2022-10-15T00:31:26.531Z,100.00
2022-10-15T00:33:57.201Z,100.00
2022-10-15T00:36:28.166Z,100.00
2022-10-15T00:38:56.779Z,100.00
2022-10-15T00:41:29.565Z,100.00
2022-10-15T00:44:00.743Z,100.00
2022-10-15T00:46:42.871Z,100.00
2022-10-15T00:49:23.213Z,100.00
2022-10-15T00:52:27.068Z,100.00
2022-10-15T00:55:06.817Z,100.00
2022-10-15T00:57:34.810Z,100.00
2022-10-15T01:00:11.700Z,100.00
2022-10-15T01:02:41.423Z,100.00
2022-10-15T01:05:10.590Z,100.00
2022-10-15T01:07:41.025Z,100.00
2022-10-15T01:10:11.129Z,100.00
2022-10-15T01:13:03.830Z,100.00
2022-10-15T01:15:41.838Z,100.00
2022-10-15T01:18:22.479Z,100.00
2022-10-15T01:20:58.703Z,100.00
2022-10-15T01:23:29.238Z,100.00
2022-10-15T01:26:21.854Z,100.00
2022-10-15T01:29:14.302Z,100.00
2022-10-15T01:32:02.573Z,100.00
2022-10-15T01:34:51.543Z,100.00
2022-10-15T01:37:29.009Z,100.00
2022-10-15T01:40:07.725Z,100.00
2022-10-15T01:42:47.184Z,100.00
2022-10-15T01:45:25.863Z,100.00
2022-10-15T01:48:14.666Z,100.00
2022-10-15T01:50:53.179Z,100.00
2022-10-15T01:53:26.832Z,100.00
2022-10-15T01:55:59.175Z,100.00
2022-10-15T01:58:29.788Z,100.00
2022-10-15T02:00:59.491Z,100.00
2022-10-15T02:03:27.464Z,100.00
2022-10-15T02:06:06.111Z,100.00
2022-10-15T02:08:50.549Z,100.00
2022-10-15T02:11:19.789Z,100.00
2022-10-15T02:14:09.758Z,100.00
2022-10-15T02:16:43.583Z,100.00
2022-10-15T02:19:51.896Z,100.00
2022-10-15T02:22:34.856Z,100.00
2022-10-15T02:25:09.174Z,100.00
2022-10-15T02:27:38.191Z,100.00
2022-10-15T02:30:09.978Z,100.00
2022-10-15T02:32:40.867Z,100.00
2022-10-15T02:35:12.064Z,100.00
2022-10-15T02:37:46.289Z,100.00
2022-10-15T02:40:17.943Z,100.00
2022-10-15T02:42:45.742Z,100.00
2022-10-15T02:45:13.489Z,100.00
2022-10-15T02:47:42.433Z,100.00
2022-10-15T02:50:10.387Z,100.00
2022-10-15T02:52:38.208Z,100.00
2022-10-15T02:55:07.197Z,100.00
2022-10-15T02:57:34.946Z,100.00
2022-10-15T03:00:04.469Z,100.00
2022-10-15T03:02:32.957Z,100.00
2022-10-15T03:05:00.671Z,100.00
2022-10-15T03:07:28.370Z,100.00
2022-10-15T03:09:57.916Z,100.00
2022-10-15T03:12:26.136Z,100.00
2022-10-15T03:14:55.151Z,100.00
2022-10-15T03:17:23.849Z,100.00
2022-10-15T03:19:51.739Z,100.00
2022-10-15T03:22:19.566Z,100.00
2022-10-15T03:24:51.525Z,100.00
2022-10-15T03:27:25.405Z,100.00
2022-10-15T03:29:54.605Z,100.00
2022-10-15T03:32:24.443Z,100.00
2022-10-15T03:34:52.850Z,100.00
2022-10-15T03:37:22.035Z,100.00
2022-10-15T03:39:50.268Z,100.00
2022-10-15T03:42:19.544Z,100.00
2022-10-15T03:44:47.974Z,100.00
2022-10-15T03:47:19.258Z,100.00
2022-10-15T03:49:49.391Z,100.00
2022-10-15T03:52:17.812Z,100.00
2022-10-15T03:54:47.410Z,100.00
2022-10-15T03:57:18.233Z,100.00
2022-10-15T03:59:50.942Z,100.00
2022-10-15T04:02:20.060Z,100.00
2022-10-15T04:04:47.867Z,100.00
2022-10-15T04:07:15.623Z,100.00
2022-10-15T04:09:43.472Z,100.00
2022-10-15T04:12:23.051Z,100.00
2022-10-15T04:14:51.533Z,100.00
2022-10-15T04:17:19.505Z,100.00
2022-10-15T04:19:47.226Z,100.00
2022-10-15T04:22:16.651Z,100.00
2022-10-15T04:24:49.693Z,100.00
2022-10-15T04:27:27.129Z,100.00
2022-10-15T04:30:01.564Z,100.00
2022-10-15T04:32:29.758Z,100.00
2022-10-15T04:34:57.725Z,100.00
2022-10-15T04:37:40.627Z,100.00
2022-10-15T04:40:12.932Z,100.00
2022-10-15T04:42:40.929Z,100.00
2022-10-15T04:45:09.600Z,100.00
2022-10-15T04:47:38.167Z,100.00
2022-10-15T04:50:12.021Z,100.00
2022-10-15T04:52:59.308Z,100.00
2022-10-15T04:55:28.993Z,100.00
2022-10-15T04:58:00.064Z,100.00
2022-10-15T05:00:31.604Z,100.00
2022-10-15T05:03:19.924Z,100.00
2022-10-15T05:06:03.630Z,100.00
2022-10-15T05:08:33.643Z,100.00
2022-10-15T05:11:10.251Z,100.00
2022-10-15T05:13:38.383Z,100.00
2022-10-15T05:16:13.299Z,100.00
2022-10-15T05:18:43.195Z,100.00
2022-10-15T05:21:12.318Z,100.00
2022-10-15T05:23:41.046Z,100.00
2022-10-15T05:26:29.706Z,100.00
2022-10-15T05:28:59.257Z,100.00
2022-10-15T05:31:32.755Z,100.00
2022-10-15T05:34:14.608Z,100.00
2022-10-15T05:36:48.504Z,100.00
2022-10-15T05:39:16.998Z,100.00
2022-10-15T05:41:46.252Z,100.00
2022-10-15T05:44:15.302Z,100.00
2022-10-15T05:46:43.052Z,100.00
2022-10-15T05:49:16.718Z,100.00
2022-10-15T05:51:52.912Z,100.00
2022-10-15T05:54:40.773Z,100.00
2022-10-15T05:57:08.497Z,100.00
2022-10-15T05:59:36.205Z,100.00
2022-10-15T06:02:04.117Z,100.00
2022-10-15T06:04:35.485Z,100.00
2022-10-15T06:07:03.781Z,100.00
2022-10-15T06:09:31.783Z,100.00
2022-10-15T06:11:59.428Z,100.00
2022-10-15T06:14:27.211Z,100.00
2022-10-15T06:16:55.090Z,100.00
2022-10-15T06:19:22.795Z,100.00
2022-10-15T06:21:50.511Z,100.00
2022-10-15T06:24:18.380Z,100.00
2022-10-15T06:26:46.104Z,100.00
2022-10-15T06:29:13.931Z,100.00
2022-10-15T06:31:41.963Z,100.00
2022-10-15T06:34:09.619Z,100.00
2022-10-15T06:36:38.076Z,100.00
2022-10-15T06:39:05.995Z,100.00
2022-10-15T06:41:33.763Z,100.00
2022-10-15T06:44:01.465Z,100.00
2022-10-15T06:46:29.491Z,100.00
2022-10-15T06:48:57.621Z,100.00
2022-10-15T06:51:25.312Z,100.00
2022-10-15T06:53:53.263Z,100.00
2022-10-15T06:56:20.984Z,100.00
2022-10-15T06:58:48.683Z,100.00
2022-10-15T07:01:17.259Z,100.00
2022-10-15T07:03:45.234Z,100.00
2022-10-15T07:06:12.974Z,100.00
2022-10-15T07:08:41.506Z,100.00
2022-10-15T07:11:09.660Z,100.00
2022-10-15T07:13:38.249Z,100.00
2022-10-15T07:16:08.601Z,100.00
2022-10-15T07:18:38.180Z,100.00
2022-10-15T07:21:08.086Z,99.22
2022-10-15T07:23:36.070Z,98.28
2022-10-15T07:26:03.795Z,96.92
2022-10-15T07:28:31.626Z,94.45
2022-10-15T07:31:05.024Z,91.40
2022-10-15T07:33:35.690Z,86.59
2022-10-15T07:36:05.669Z,80.10
2022-10-15T07:38:34.270Z,74.21
2022-10-15T07:41:04.253Z,68.13
2022-10-15T07:43:34.627Z,63.38
2022-10-15T07:46:02.711Z,59.23
2022-10-15T07:48:30.629Z,55.62
2022-10-15T07:51:00.634Z,53.90
2022-10-15T07:53:29.858Z,52.04
2022-10-15T07:56:02.505Z,51.20
2022-10-15T07:58:34.716Z,52.75
2022-10-15T08:01:07.912Z,54.86
2022-10-15T08:03:36.636Z,56.74
2022-10-15T08:06:07.501Z,58.42
2022-10-15T08:08:36.802Z,60.37
2022-10-15T08:11:10.489Z,62.08
2022-10-15T08:13:42.381Z,62.80
2022-10-15T08:16:12.472Z,64.19
2022-10-15T08:18:40.844Z,66.00
2022-10-15T08:21:09.078Z,67.89
2022-10-15T08:23:37.170Z,68.55
2022-10-15T08:26:05.332Z,69.72
2022-10-15T08:28:35.133Z,70.34
2022-10-15T08:31:05.637Z,70.88
2022-10-15T08:33:35.704Z,70.47
2022-10-15T08:36:05.795Z,69.76
2022-10-15T08:38:34.274Z,69.56
2022-10-15T08:41:05.864Z,69.83
2022-10-15T08:43:42.786Z,69.79
2022-10-15T08:46:31.618Z,70.25
2022-10-15T08:49:01.605Z,69.29
2022-10-15T08:51:47.098Z,64.13
2022-10-15T08:54:18.721Z,60.13
2022-10-15T08:56:54.838Z,58.48
2022-10-15T08:59:28.650Z,57.48
2022-10-15T09:02:20.589Z,57.08
2022-10-15T09:05:21.405Z,55.97
2022-10-15T09:07:56.616Z,51.87
2022-10-15T09:10:32.992Z,49.01
2022-10-15T09:13:24.059Z,48.17
2022-10-15T09:15:57.284Z,47.31
2022-10-15T09:18:28.807Z,45.94
2022-10-15T09:20:58.343Z,45.38
2022-10-15T09:23:29.793Z,45.69
2022-10-15T09:25:57.647Z,47.40
2022-10-15T09:28:36.085Z,48.70
2022-10-15T09:31:05.648Z,49.00
2022-10-15T09:34:02.022Z,48.73
2022-10-15T09:36:54.823Z,48.53
2022-10-15T09:39:50.565Z,49.28
2022-10-15T09:42:39.346Z,50.57
2022-10-15T09:45:12.460Z,52.04
2022-10-15T09:47:42.333Z,53.19
2022-10-15T09:50:14.789Z,53.97
2022-10-15T09:53:04.012Z,54.30
2022-10-15T09:55:42.933Z,54.60
2022-10-15T09:58:25.252Z,55.46
2022-10-15T10:00:57.971Z,56.08
2022-10-15T10:03:29.022Z,56.66
2022-10-15T10:06:07.108Z,57.54
2022-10-15T10:08:59.422Z,58.24
2022-10-15T10:11:46.020Z,58.57
2022-10-15T10:14:25.495Z,59.79
2022-10-15T10:17:16.424Z,60.32
2022-10-15T10:19:46.433Z,61.02
2022-10-15T10:22:20.137Z,61.54
2022-10-15T10:24:48.619Z,61.49
2022-10-15T10:27:34.983Z,61.40
2022-10-15T10:30:07.099Z,60.57
2022-10-15T10:32:35.956Z,60.13
2022-10-15T10:35:05.758Z,60.04
2022-10-15T10:37:43.717Z,60.00
2022-10-15T10:40:32.320Z,60.16
2022-10-15T10:43:17.169Z,60.75
2022-10-15T10:45:59.776Z,60.88
2022-10-15T10:48:41.590Z,60.82
2022-10-15T10:51:19.599Z,60.85
2022-10-15T10:54:03.401Z,60.52
2022-10-15T10:56:38.120Z,61.11
2022-10-15T10:59:37.081Z,60.91
2022-10-15T11:02:11.158Z,60.48
2022-10-15T11:04:40.146Z,60.51
2022-10-15T11:07:14.742Z,60.32
2022-10-15T11:09:56.297Z,59.38
2022-10-15T11:12:27.472Z,58.44
2022-10-15T11:15:21.510Z,58.23
2022-10-15T11:17:55.735Z,57.58
2022-10-15T11:20:39.982Z,56.87
2022-10-15T11:23:45.903Z,56.48
2022-10-15T11:26:16.474Z,56.55
2022-10-15T11:29:06.413Z,56.77
2022-10-15T11:32:01.665Z,56.40
2022-10-15T11:34:46.547Z,56.31
2022-10-15T11:37:17.462Z,55.72
2022-10-15T11:40:11.455Z,55.66
2022-10-15T11:42:44.988Z,55.34
2022-10-15T11:45:15.960Z,55.15
2022-10-15T11:47:58.545Z,55.21
2022-10-15T11:50:32.541Z,55.58
2022-10-15T11:53:06.317Z,55.81
2022-10-15T11:55:52.267Z,55.52
2022-10-15T11:58:36.060Z,55.65
2022-10-15T12:01:28.938Z,54.54
2022-10-15T12:04:11.908Z,53.64
2022-10-15T12:06:48.886Z,52.88
2022-10-15T12:09:26.105Z,52.09
2022-10-15T12:12:07.446Z,52.44
2022-10-15T12:15:03.986Z,51.42
2022-10-15T12:17:43.403Z,52.04
2022-10-15T12:20:17.535Z,52.70
2022-10-15T12:22:50.125Z,53.28
2022-10-15T12:25:35.782Z,53.60
2022-10-15T12:28:16.883Z,53.32
2022-10-15T12:31:03.917Z,53.90
2022-10-15T12:33:36.576Z,54.00
2022-10-15T12:36:30.879Z,54.55
2022-10-15T12:39:07.807Z,54.46
2022-10-15T12:41:48.953Z,54.30
2022-10-15T12:44:32.418Z,54.35
2022-10-15T12:47:00.670Z,54.28
2022-10-15T12:49:32.225Z,54.20
2022-10-15T12:52:02.859Z,54.38
2022-10-15T12:54:44.242Z,54.25
2022-10-15T12:57:34.644Z,55.24
2022-10-15T13:00:23.438Z,55.08
2022-10-15T13:03:01.088Z,55.57
2022-10-15T13:05:33.099Z,55.60
2022-10-15T13:08:12.070Z,55.84
2022-10-15T13:10:47.231Z,56.47
2022-10-15T13:13:29.319Z,55.86
2022-10-15T13:16:02.756Z,56.20
2022-10-15T13:18:31.883Z,56.74
2022-10-15T13:23:34.790Z,57.19
2022-10-15T13:26:12.966Z,57.54
2022-10-15T13:28:42.704Z,57.74
2022-10-15T13:31:28.977Z,57.89
2022-10-15T13:34:21.608Z,58.39
2022-10-15T13:36:50.124Z,58.67
2022-10-15T13:39:38.580Z,58.58
2022-10-15T13:42:24.124Z,58.95
2022-10-15T13:45:03.251Z,59.14
2022-10-15T13:47:41.159Z,58.85
2022-10-15T13:50:19.575Z,59.11
2022-10-15T13:53:17.770Z,58.55
2022-10-15T13:55:54.563Z,58.01
2022-10-15T13:58:30.206Z,57.71
2022-10-15T14:01:10.141Z,57.80
2022-10-15T14:03:46.364Z,57.72
2022-10-15T14:06:34.858Z,57.73
2022-10-15T14:09:25.060Z,58.30
2022-10-15T14:12:00.543Z,58.45
2022-10-15T14:14:41.688Z,58.85
2022-10-15T14:17:17.384Z,59.66
2022-10-15T14:20:25.667Z,59.99
2022-10-15T14:22:50.022Z,60.38
2022-10-15T14:25:23.563Z,60.58
2022-10-15T14:27:52.215Z,60.81
2022-10-15T14:30:35.859Z,60.87
2022-10-15T14:33:03.967Z,60.93
2022-10-15T14:35:35.261Z,61.23
2022-10-15T14:38:05.763Z,61.86
2022-10-15T14:40:33.814Z,62.15
2022-10-15T14:43:06.812Z,62.46
2022-10-15T14:45:54.657Z,62.78
2022-10-15T14:48:38.838Z,62.86
2022-10-15T14:51:14.616Z,63.10
2022-10-15T14:53:47.707Z,63.04
2022-10-15T14:56:22.806Z,63.59
2022-10-15T14:58:54.780Z,64.04
2022-10-15T15:01:23.397Z,64.36
2022-10-15T15:03:53.562Z,64.94
2022-10-15T15:06:21.701Z,65.09
2022-10-15T15:08:49.642Z,65.49
2022-10-15T15:11:25.343Z,65.77
2022-10-15T15:13:54.148Z,65.69
2022-10-15T15:16:22.472Z,65.90
2022-10-15T15:18:50.176Z,65.70
2022-10-15T15:21:22.497Z,65.81
2022-10-15T15:23:50.628Z,65.49
2022-10-15T15:26:18.536Z,65.42
2022-10-15T15:28:46.297Z,66.00
2022-10-15T15:31:18.829Z,66.31
2022-10-15T15:33:46.622Z,66.81
2022-10-15T15:36:20.576Z,66.84
2022-10-15T15:38:51.244Z,67.32
2022-10-15T15:41:24.444Z,67.48
2022-10-15T15:43:53.537Z,67.81
2022-10-15T15:46:21.487Z,68.22
2022-10-15T15:48:49.179Z,68.75
2022-10-15T15:51:25.498Z,69.22
2022-10-15T15:53:53.685Z,69.56
2022-10-15T15:56:22.735Z,70.00
2022-10-15T15:58:51.346Z,70.55
2022-10-15T16:01:20.492Z,71.25
2022-10-15T16:03:48.583Z,71.82
2022-10-15T16:06:16.508Z,72.75
2022-10-15T16:08:44.186Z,73.28
2022-10-15T16:11:12.141Z,73.69
2022-10-15T16:13:40.924Z,74.08
2022-10-15T16:16:09.392Z,74.39
2022-10-15T16:18:37.841Z,74.77
2022-10-15T16:21:05.915Z,74.87
2022-10-15T16:23:33.755Z,75.09
2022-10-15T16:26:01.682Z,75.41
2022-10-15T16:28:29.441Z,75.34
2022-10-15T16:31:40.130Z,75.44
2022-10-15T16:34:09.442Z,75.35
2022-10-15T16:36:37.284Z,75.37
2022-10-15T16:39:05.022Z,75.19
2022-10-15T16:41:33.121Z,75.12
2022-10-15T16:44:00.985Z,75.19
2022-10-15T16:46:28.922Z,75.75
2022-10-15T16:48:57.853Z,75.64
2022-10-15T16:51:26.326Z,76.02
2022-10-15T16:53:57.480Z,75.79
2022-10-15T16:56:28.263Z,75.86
2022-10-15T16:58:57.188Z,75.75
2022-10-15T17:01:28.383Z,75.65
2022-10-15T17:03:57.800Z,75.61
2022-10-15T17:06:29.236Z,75.55
2022-10-15T17:08:59.748Z,75.68
2022-10-15T17:11:30.669Z,75.92
2022-10-15T17:14:00.558Z,75.66
2022-10-15T17:16:30.999Z,75.48
2022-10-15T17:18:59.072Z,75.60
2022-10-15T17:21:29.964Z,75.06
2022-10-15T17:24:00.095Z,74.87
2022-10-15T17:26:33.381Z,74.58
2022-10-15T17:29:01.029Z,74.43
2022-10-15T17:31:30.283Z,74.27
2022-10-15T17:34:00.825Z,74.65
2022-10-15T17:36:31.657Z,75.08
2022-10-15T17:38:59.898Z,75.41
2022-10-15T17:41:30.449Z,76.05
2022-10-15T17:43:58.685Z,77.01
2022-10-15T17:46:29.169Z,77.70
2022-10-15T17:48:58.423Z,78.59
2022-10-15T17:51:29.717Z,79.50
2022-10-15T17:54:03.418Z,81.09
2022-10-15T17:56:35.290Z,82.12
2022-10-15T17:59:05.514Z,83.00
2022-10-15T18:04:31.051Z,85.06
2022-10-15T18:06:59.116Z,85.15
2022-10-15T18:09:28.348Z,86.04
2022-10-15T18:12:00.558Z,86.56
2022-10-15T18:14:30.070Z,87.18
2022-10-15T18:16:58.765Z,87.27
2022-10-15T18:19:27.087Z,87.48
2022-10-15T18:21:55.922Z,87.70
2022-10-15T18:24:23.917Z,87.97
2022-10-15T18:26:52.581Z,88.22
2022-10-15T18:29:20.789Z,88.62
2022-10-15T18:31:52.201Z,88.88
2022-10-15T18:34:22.811Z,88.69
2022-10-15T18:36:50.758Z,88.35
2022-10-15T18:39:18.538Z,88.11
2022-10-15T18:41:46.508Z,87.78
2022-10-15T18:44:17.631Z,88.02
2022-10-15T18:46:45.939Z,88.44
2022-10-15T18:49:15.828Z,87.99
2022-10-15T18:51:46.192Z,87.86
2022-10-15T18:54:14.526Z,87.08
2022-10-15T18:56:42.407Z,86.04
2022-10-15T18:59:10.136Z,86.14
2022-10-15T19:01:43.212Z,86.22
2022-10-15T19:04:15.934Z,85.79
2022-10-15T19:06:49.871Z,85.15
2022-10-15T19:09:24.170Z,85.07
2022-10-15T19:11:54.240Z,85.26
2022-10-15T19:14:22.982Z,85.43
2022-10-15T19:16:51.424Z,85.85
2022-10-15T19:19:22.039Z,85.75
2022-10-15T19:21:51.851Z,85.74
2022-10-15T19:24:21.503Z,85.79
2022-10-15T19:26:51.119Z,85.54
2022-10-15T19:29:19.843Z,85.88
2022-10-15T19:31:49.769Z,85.89
2022-10-15T19:34:17.625Z,85.58
2022-10-15T19:36:47.744Z,85.97
2022-10-15T19:39:19.088Z,85.56
2022-10-15T19:41:47.584Z,84.74
2022-10-15T19:44:19.464Z,83.66
2022-10-15T19:46:47.406Z,83.21
2022-10-15T19:49:15.748Z,82.90
2022-10-15T19:51:46.371Z,82.38
2022-10-15T19:54:14.306Z,81.93
2022-10-15T19:56:42.771Z,81.69
2022-10-15T19:59:12.008Z,81.58
2022-10-15T20:01:39.978Z,81.60
2022-10-15T20:04:08.099Z,80.41
2022-10-15T20:06:38.547Z,79.39
2022-10-15T20:09:07.791Z,79.09
2022-10-15T20:11:36.072Z,78.78
2022-10-15T20:14:03.985Z,78.23
2022-10-15T20:16:33.400Z,77.60
2022-10-15T20:19:03.316Z,77.04
2022-10-15T20:21:32.092Z,76.63
2022-10-15T20:24:03.891Z,76.26
2022-10-15T20:26:32.443Z,75.92
2022-10-15T20:29:00.345Z,75.87
2022-10-15T20:31:32.674Z,76.05
2022-10-15T20:34:01.062Z,74.93
2022-10-15T20:36:29.048Z,74.30
2022-10-15T20:38:58.561Z,73.86
2022-10-15T20:41:26.459Z,73.78
2022-10-15T20:43:55.850Z,73.42
2022-10-15T20:46:31.758Z,73.33
2022-10-15T20:49:08.804Z,73.31
2022-10-15T20:51:40.052Z,73.03
2022-10-15T20:54:09.011Z,72.36
2022-10-15T20:56:36.992Z,72.05
2022-10-15T20:59:05.363Z,71.45
2022-10-15T21:01:34.383Z,71.34
2022-10-15T21:04:02.935Z,71.41
2022-10-15T21:06:30.983Z,71.90
2022-10-15T21:08:58.712Z,72.39
2022-10-15T21:11:26.677Z,72.35
2022-10-15T21:13:54.507Z,72.60
2022-10-15T21:16:25.917Z,72.96
2022-10-15T21:18:56.169Z,73.22
2022-10-15T21:21:24.066Z,73.26
2022-10-15T21:23:51.758Z,73.78
2022-10-15T21:26:20.686Z,74.15
2022-10-15T21:28:53.129Z,74.42
2022-10-15T21:31:21.114Z,74.70
2022-10-15T21:33:48.846Z,74.92
2022-10-15T21:36:26.389Z,74.91
2022-10-15T21:38:55.563Z,75.67
2022-10-15T21:41:24.719Z,76.25
2022-10-15T21:43:53.081Z,76.92
2022-10-15T21:46:21.156Z,77.21
2022-10-15T21:48:49.580Z,77.39
2022-10-15T21:51:29.468Z,78.00
2022-10-15T21:53:58.801Z,78.03
2022-10-15T21:56:27.156Z,78.13
2022-10-15T21:58:55.426Z,78.01
2022-10-15T22:01:27.868Z,78.14
2022-10-15T22:04:00.529Z,78.52
2022-10-15T22:06:28.986Z,78.73
2022-10-15T22:08:58.279Z,78.79
2022-10-15T22:11:28.927Z,78.86
2022-10-15T22:14:00.340Z,78.62
2022-10-15T22:16:29.921Z,78.61
2022-10-15T22:18:57.839Z,78.47
2022-10-15T22:21:31.387Z,78.42
2022-10-15T22:24:01.524Z,78.39
2022-10-15T22:26:35.082Z,78.41
2022-10-15T22:29:04.446Z,78.41
2022-10-15T22:31:33.448Z,78.75
2022-10-15T22:34:01.724Z,78.21
2022-10-15T22:36:31.191Z,78.18
2022-10-15T22:39:04.958Z,77.56
2022-10-15T22:41:39.925Z,77.29
2022-10-15T22:44:09.478Z,76.92
2022-10-15T22:46:39.134Z,76.47
2022-10-15T22:49:08.492Z,76.13
2022-10-15T22:51:36.417Z,75.83
2022-10-15T22:54:04.565Z,75.06
2022-10-15T22:56:33.240Z,74.84
2022-10-15T22:59:01.106Z,74.12
2022-10-15T23:01:31.428Z,74.11
2022-10-15T23:04:03.522Z,73.55
2022-10-15T23:06:34.558Z,73.63
2022-10-15T23:09:03.811Z,73.39
2022-10-15T23:11:33.395Z,73.21
2022-10-15T23:14:07.301Z,72.84
2022-10-15T23:16:36.426Z,72.50
2022-10-15T23:19:21.661Z,72.12
2022-10-15T23:21:51.318Z,72.11
2022-10-15T23:24:22.003Z,72.11
2022-10-15T23:26:50.449Z,72.58
2022-10-15T23:29:23.980Z,73.08
2022-10-15T23:31:52.450Z,73.15
2022-10-15T23:34:25.190Z,73.00
2022-10-15T23:36:53.418Z,73.01
2022-10-15T23:39:23.856Z,72.83
2022-10-15T23:41:52.109Z,72.80
2022-10-15T23:44:20.240Z,72.84
2022-10-15T23:46:48.147Z,72.29
2022-10-15T23:49:16.917Z,72.25
2022-10-15T23:51:44.746Z,71.87
2022-10-15T23:54:18.201Z,72.15
2022-10-15T23:56:47.542Z,72.33
2022-10-15T23:59:17.090Z,72.30
